Shreveport Regional Airport
KSHV : rendu visible

Aérodrome :











RETROUVEZ-NOUS SUR...

 
LOGIN :

S'inscrire | Disclaimer

   EN    FR    IT 

 









Légende :    VFR   VFR Marginal   IFR   IFR Intensif   IFR Très Intensif
Visi : 
Plafond : 
>= 8 km
>= 3000ft
5 à 8 km
1000 à 3000 ft
1500m à 5 km
500 à 1000 ft
800 à 1500m
200 à 500 ft
< 800m
< 200 ft
Symboles :   Orages  Brouillard  Fortes neiges  Fortes précipitations  Vent > 20 kt






- Altitude de l'aérodrome : 258 ft
- Code IATA : SHV


KSHV - Shreveport Regional

DERNIER METAR :
  • 271308Z 21003KT 2SM BR OVC002 17/17 A2991 RMK AO2 T01720172 $

METARs EXPIRÉS :
  • 271256Z 19003KT 1SM BR VV002 17/17 A2990 RMK AO2 SLP123 T01720172 $
  • 271156Z 00000KT 1/4SM BCFG VV002 16/16 A2990 RMK AO2 SLP123 70043 T01610161 10178 20156 51015 $
  • 271144Z 00000KT 3/4SM BCFG VV002 16/16 A2990 RMK AO2 T01610161 $
  • 271121Z 15003KT 1 1/4SM BCFG FEW002 16/15 A2989 RMK AO2 T01560150 $
  • 271110Z 10003KT 1SM BCFG VV002 16/16 A2989 RMK AO2 T01610156 $
  • 271105Z 00000KT 5SM BCFG FEW002 16/16 A2988 RMK AO2 T01610156 $
  • 271058Z 00000KT 2 1/2SM BCFG SCT002 17/16 A2988 RMK AO2 T01670156 $
  • 271047Z 00000KT 1SM BCFG VV002 16/16 A2987 RMK AO2 T01610156 $

TAF KSHV
Valide du 27 à 12h jusqu'au 28 à 12h UTC


271150Z 2712/2812 00000KT 1SM BR VV002
FM271300 VRB03KT 5SM BR SCT003 BKN050
FM271400 26007KT P6SM FEW025 SCT050
FM280100 28005KT P6SM FEW040 SCT060
FM280500 23003KT 6SM -TSRA SCT020 BKN030CB
FIR KZFW / Amérique du Nord



MET'MAP, la Météo Aéronautique d'un coup d'oeil ! - Copyright ORBIFLY Décembre 2007 - Disclaimer

ORBIFLY MET'MAP TEAM :

Programmation & Développement : Alexandra Zaïnal
Sur une idée originale de : Baudouin d'Aumeries
Assistance à la programmation : Marc-Olivier Méhu
Soutien technique & logistique : Manuel Goepfert

Contact : metmap@orbifly.com




SOURCES & CREDITS :

   NOAA       Earth
Advisory